Time;durP1;ratioP1;P1;durP2;ratioP2;P2;SDS_P1;SDS_P2;PMS_P1;PMS_P2;Temp;Humidity;BMP_temperature;BMP_pressure;BME280_temperature;BME280_humidity;BME280_pressure;Samples;Min_cycle;Max_cycle;Signal;HPM_P1;HPM_P2
2022/11/25 00:00:48;;;;;;;;;4.33;4.33;;;;;12.35;76.66;100632.72;4997123;28;45897;-71
2022/11/25 00:03:13;;;;;;;;;5.67;4.67;;;;;12.39;76.53;100634.09;4979747;28;45168;-72
2022/11/25 00:05:39;;;;;;;;;4.33;4.00;;;;;12.32;76.01;100630.38;4997318;28;45503;-72
2022/11/25 00:08:04;;;;;;;;;6.67;5.67;;;;;12.20;76.15;100602.31;4997276;28;45246;-69
2022/11/25 00:10:29;;;;;;;;;5.33;4.00;;;;;12.47;75.82;100631.47;4994738;28;59528;-70
2022/11/25 00:12:55;;;;;;;;;4.67;1.67;;;;;12.22;75.73;100583.53;4975465;28;45342;-72
2022/11/25 00:15:20;;;;;;;;;3.00;3.00;;;;;12.49;75.84;100616.16;4977468;28;45267;-71
2022/11/25 00:17:45;;;;;;;;;3.33;3.33;;;;;12.50;75.36;100622.31;4978575;28;45471;-71
2022/11/25 00:20:11;;;;;;;;;5.33;2.33;;;;;12.23;75.64;100583.38;4994821;28;47723;-70
2022/11/25 00:22:36;;;;;;;;;3.67;3.33;;;;;12.49;76.01;100634.81;4980803;28;45227;-69
2022/11/25 00:25:02;;;;;;;;;3.33;3.33;;;;;12.42;75.49;100617.78;4980663;28;45447;-71
2022/11/25 00:27:27;;;;;;;;;5.00;5.00;;;;;12.20;75.35;100586.31;4981042;28;45429;-71
2022/11/25 00:29:53;;;;;;;;;4.00;4.00;;;;;12.45;75.42;100617.47;4980850;28;46438;-72
2022/11/25 00:32:18;;;;;;;;;5.33;4.00;;;;;12.56;75.37;100632.34;4979276;28;46080;-70
2022/11/25 00:34:43;;;;;;;;;3.67;3.67;;;;;12.53;75.23;100648.66;4980761;28;45364;-72
2022/11/25 00:37:09;;;;;;;;;3.00;3.00;;;;;11.96;75.53;100551.56;4980760;28;45253;-70
2022/11/25 00:39:34;;;;;;;;;4.67;4.67;;;;;12.39;75.63;100622.59;4980464;28;45631;-71
2022/11/25 00:44:43;;;;;;;;;7.33;4.33;;;;;11.88;75.62;100555.84;4980584;28;45250;-71
2022/11/25 00:47:12;;;;;;;;;4.33;4.00;;;;;12.11;75.70;100592.63;4980598;28;45294;-71
2022/11/25 00:49:39;;;;;;;;;6.00;5.00;;;;;12.38;75.75;100658.25;4980519;28;45480;-70
2022/11/25 00:52:05;;;;;;;;;4.33;4.00;;;;;12.32;76.05;100649.06;4980164;28;45219;-69
2022/11/25 00:54:31;;;;;;;;;4.67;3.33;;;;;12.29;75.74;100649.38;4980245;28;45536;-70
2022/11/25 00:56:57;;;;;;;;;7.33;4.00;;;;;11.52;75.72;100522.28;4980472;28;45221;-71
2022/11/25 00:59:23;;;;;;;;;5.00;3.33;;;;;11.77;75.98;100574.72;4980264;28;45502;-71
2022/11/25 01:01:48;;;;;;;;;6.33;5.33;;;;;12.18;76.00;100652.28;4980217;28;45412;-71
2022/11/25 01:04:14;;;;;;;;;9.33;4.00;;;;;11.71;75.97;100580.66;4978854;28;45301;-71
2022/11/25 01:06:40;;;;;;;;;6.67;5.00;;;;;12.15;75.83;100648.09;4980771;28;45420;-70
2022/11/25 01:09:06;;;;;;;;;3.33;2.33;;;;;12.11;76.40;100669.91;4980287;28;46005;-70
2022/11/25 01:11:31;;;;;;;;;3.33;3.00;;;;;12.09;76.55;100664.72;4982182;28;45800;-70
2022/11/25 01:13:57;;;;;;;;;2.33;2.33;;;;;11.90;76.70;100674.72;4999740;28;45290;-70
2022/11/25 01:16:23;;;;;;;;;4.00;4.00;;;;;11.93;76.48;100661.09;4981928;28;45436;-70
2022/11/25 01:18:50;;;;;;;;;6.00;5.00;;;;;10.96;77.00;100523.47;4999449;28;45343;-70
2022/11/25 01:21:21;;;;;;;;;5.00;4.00;;;;;11.83;76.78;100680.69;4999298;28;45502;-70
2022/11/25 01:23:47;;;;;;;;;5.00;4.00;;;;;11.79;77.55;100675.78;4981721;28;45563;-71
2022/11/25 01:26:16;;;;;;;;;6.00;4.00;;;;;11.76;77.69;100679.56;4999507;28;45385;-72
2022/11/25 01:28:42;;;;;;;;;5.33;4.00;;;;;11.61;77.11;100659.78;4997744;28;48326;-70
2022/11/25 01:31:10;;;;;;;;;3.33;2.33;;;;;11.74;77.76;100692.22;4998226;28;45479;-70
2022/11/25 01:33:36;;;;;;;;;4.33;3.33;;;;;11.72;77.37;100699.53;4999349;28;45409;-71
2022/11/25 01:36:06;;;;;;;;;11.33;5.00;;;;;11.67;77.51;100699.16;4999261;28;45436;-71
2022/11/25 01:38:32;;;;;;;;;5.00;4.00;;;;;11.62;77.43;100698.78;4998993;28;46815;-71
2022/11/25 01:40:58;;;;;;;;;3.67;3.00;;;;;11.23;78.29;100664.44;4997744;28;45374;-70
2022/11/25 01:43:25;;;;;;;;;3.67;3.67;;;;;11.54;78.12;100728.81;4999131;28;45385;-69
2022/11/25 01:45:51;;;;;;;;;5.00;2.00;;;;;11.52;77.97;100727.28;4997478;28;45515;-70
2022/11/25 01:48:48;;;;;;;;;4.67;3.00;;;;;11.47;78.64;100717.09;4998866;28;46738;-70
2022/11/25 01:51:23;;;;;;;;;4.33;3.00;;;;;11.44;78.71;100728.03;4977798;28;45482;-70
2022/11/25 01:53:50;;;;;;;;;8.00;6.67;;;;;11.38;78.19;100717.13;4998896;28;45536;-70
2022/11/25 01:56:16;;;;;;;;;4.67;3.00;;;;;11.11;78.34;100678.94;4997570;28;45566;-70
2022/11/25 01:58:44;;;;;;;;;3.00;2.00;;;;;11.34;78.22;100721.09;4997265;28;48255;-69
2022/11/25 02:01:09;;;;;;;;;3.00;3.00;;;;;11.35;78.82;100728.09;4999000;28;45420;-70
2022/11/25 02:03:42;;;;;;;;;6.00;5.00;;;;;11.24;78.75;100716.69;4998749;28;45575;-71
2022/11/25 02:06:24;;;;;;;;;5.67;5.00;;;;;11.30;78.98;100735.69;4999127;28;45241;-72
2022/11/25 02:08:54;;;;;;;;;5.67;4.00;;;;;10.33;78.81;100574.78;4998344;28;45747;-71
2022/11/25 02:11:24;;;;;;;;;5.33;3.67;;;;;11.29;78.93;100742.84;4998303;28;45307;-70
2022/11/25 02:13:50;;;;;;;;;5.00;5.00;;;;;11.24;78.90;100743.28;4998855;28;45325;-69
2022/11/25 02:16:16;;;;;;;;;3.00;3.00;;;;;11.18;78.94;100748.34;4998602;28;45495;-69
2022/11/25 02:18:41;;;;;;;;;5.00;5.00;;;;;11.19;78.84;100766.81;4998056;28;55971;-70
2022/11/25 02:21:07;;;;;;;;;4.00;3.00;;;;;11.07;79.51;100730.75;4998571;28;45368;-69
2022/11/25 02:23:42;;;;;;;;;6.33;5.00;;;;;11.17;79.20;100752.81;4997360;28;45527;-70
2022/11/25 02:26:07;;;;;;;;;6.33;4.67;;;;;10.88;78.99;100704.25;4980960;28;45467;-70
2022/11/25 02:28:34;;;;;;;;;4.00;4.00;;;;;10.99;79.10;100728.00;4998389;28;45591;-70
2022/11/25 02:30:59;;;;;;;;;3.67;2.67;;;;;11.15;78.87;100764.59;4996921;28;45346;-69
2022/11/25 02:33:26;;;;;;;;;3.00;3.00;;;;;11.12;79.06;100767.56;4998337;28;45472;-69
2022/11/25 02:35:55;;;;;;;;;18.33;14.67;;;;;10.39;78.74;100645.09;4998498;28;45654;-72
2022/11/25 02:38:28;;;;;;;;;6.33;3.00;;;;;10.09;78.44;100594.84;4998164;28;46609;-70
2022/11/25 02:41:06;;;;;;;;;5.00;2.67;;;;;10.99;79.04;100754.59;4996804;28;46514;-71
2022/11/25 02:43:32;;;;;;;;;4.67;3.67;;;;;11.10;78.73;100798.81;4998048;28;45224;-70
2022/11/25 02:46:00;;;;;;;;;4.00;2.33;;;;;10.14;78.93;100630.59;5009198;28;45185;-70
2022/11/25 02:48:27;;;;;;;;;3.00;2.00;;;;;10.66;78.84;100726.72;5017919;28;46734;-70
2022/11/25 02:50:53;;;;;;;;;7.33;5.00;;;;;11.04;78.84;100788.75;5017824;28;45267;-69
2022/11/25 02:53:19;;;;;;;;;2.67;2.67;;;;;11.04;78.34;100789.59;5017913;28;45550;-70
2022/11/25 02:55:44;;;;;;;;;3.00;3.00;;;;;10.62;78.32;100731.50;5000212;28;45349;-71
2022/11/25 02:58:10;;;;;;;;;5.00;3.33;;;;;10.98;78.39;100790.16;5016731;28;45610;-70
2022/11/25 03:00:35;;;;;;;;;2.67;2.67;;;;;10.85;78.25;100765.72;4998120;28;45358;-71
2022/11/25 03:03:00;;;;;;;;;3.67;3.67;;;;;11.02;78.84;100804.88;4997965;28;45437;-71
2022/11/25 03:05:26;;;;;;;;;3.00;3.00;;;;;10.06;78.57;100673.84;4998106;28;45451;-70
2022/11/25 03:07:52;;;;;;;;;3.00;2.00;;;;;10.56;78.42;100734.72;4996457;28;45999;-70
2022/11/25 03:10:17;;;;;;;;;10.00;5.33;;;;;10.60;78.71;100745.91;5013457;28;45549;-68
2022/11/25 03:12:42;;;;;;;;;5.33;3.33;;;;;10.96;79.00;100832.03;5017568;28;45378;-71
2022/11/25 03:15:08;;;;;;;;;3.00;3.00;;;;;10.97;78.80;100820.41;5017875;28;45557;-69
2022/11/25 03:17:33;;;;;;;;;4.00;2.00;;;;;10.22;78.57;100694.53;5017045;28;46648;-70
2022/11/25 03:19:59;;;;;;;;;4.00;2.67;;;;;10.21;78.06;100703.50;5017095;28;49819;-70
2022/11/25 03:22:24;;;;;;;;;3.33;3.00;;;;;10.98;78.47;100832.72;5017530;28;45444;-72
2022/11/25 03:24:50;;;;;;;;;5.33;3.33;;;;;10.95;78.25;100830.34;5017632;28;45252;-69
2022/11/25 03:27:15;;;;;;;;;5.67;2.00;;;;;10.74;78.14;100801.28;5017058;28;46654;-70
2022/11/25 03:29:41;;;;;;;;;3.00;3.00;;;;;10.92;78.10;100855.41;5003981;28;45439;-70
2022/11/25 03:32:06;;;;;;;;;4.67;3.00;;;;;10.51;78.66;100776.00;4997849;28;45365;-70
2022/11/25 03:34:31;;;;;;;;;3.33;1.67;;;;;10.33;78.67;100750.16;4997594;28;45340;-70
2022/11/25 03:36:57;;;;;;;;;4.25;4.25;;;;;10.69;78.40;100818.66;4997054;28;46517;-71
2022/11/25 03:39:22;;;;;;;;;2.33;1.33;;;;;10.89;78.69;100857.53;4997585;28;45475;-69
2022/11/25 03:41:48;;;;;;;;;6.00;3.67;;;;;10.56;78.59;100821.59;4997584;28;45417;-69
2022/11/25 03:44:14;;;;;;;;;3.67;3.67;;;;;10.83;78.94;100866.94;4997543;28;45362;-70
2022/11/25 03:46:39;;;;;;;;;3.33;3.33;;;;;10.75;78.70;100860.63;4997213;28;46616;-70
2022/11/25 03:49:04;;;;;;;;;7.00;4.33;;;;;10.63;78.56;100860.81;4997244;28;45253;-70
2022/11/25 03:51:30;;;;;;;;;5.33;4.67;;;;;10.51;78.44;100822.03;4997462;28;45325;-70
2022/11/25 03:53:55;;;;;;;;;4.67;4.67;;;;;10.79;78.13;100881.47;4998141;28;45577;-71
2022/11/25 03:56:21;;;;;;;;;5.00;5.00;;;;;10.82;78.61;100885.69;5000932;28;45493;-70
2022/11/25 03:58:46;;;;;;;;;3.00;2.67;;;;;9.59;78.09;100680.00;5000823;28;45490;-70
2022/11/25 04:01:11;;;;;;;;;2.33;2.33;;;;;10.85;78.61;100896.88;4999480;28;45372;-69
2022/11/25 04:03:37;;;;;;;;;6.00;3.33;;;;;10.65;77.87;100872.13;4983129;28;45314;-71
2022/11/25 04:06:02;;;;;;;;;3.00;3.00;;;;;10.85;78.19;100894.22;5000616;28;45594;-70
2022/11/25 04:08:27;;;;;;;;;6.00;3.67;;;;;10.73;78.22;100876.72;5000641;28;45432;-70
2022/11/25 04:10:53;;;;;;;;;4.67;3.33;;;;;10.52;78.59;100839.66;5000669;28;45427;-72
2022/11/25 04:13:18;;;;;;;;;6.00;3.33;;;;;10.75;79.15;100887.22;5000661;28;45460;-71
2022/11/25 04:15:48;;;;;;;;;4.67;2.33;;;;;10.79;78.36;100901.91;5000371;28;45506;-70
2022/11/25 04:18:15;;;;;;;;;7.00;4.33;;;;;10.60;78.22;100870.84;5000358;28;45433;-69
2022/11/25 04:20:41;;;;;;;;;3.67;3.00;;;;;10.81;78.69;100900.81;5000494;28;45270;-70
2022/11/25 04:23:07;;;;;;;;;4.67;4.00;;;;;10.33;78.49;100839.69;5000568;28;45235;-71
2022/11/25 04:25:33;;;;;;;;;5.33;3.33;;;;;10.85;78.22;100912.00;5000149;28;46522;-70
2022/11/25 04:27:59;;;;;;;;;4.00;3.33;;;;;10.74;78.00;100901.50;5000186;28;45459;-69
2022/11/25 04:30:24;;;;;;;;;6.67;4.00;;;;;10.39;78.07;100854.22;5018162;28;45436;-71
2022/11/25 04:32:50;;;;;;;;;5.00;2.00;;;;;10.66;78.13;100900.41;5020161;28;45653;-70
2022/11/25 04:35:16;;;;;;;;;4.67;3.00;;;;;9.21;78.29;100679.00;5019852;28;45450;-69
2022/11/25 04:37:41;;;;;;;;;2.33;1.67;;;;;10.33;78.39;100852.97;5019890;28;45486;-70
2022/11/25 04:40:07;;;;;;;;;4.00;3.67;;;;;10.66;78.48;100913.69;5005087;28;45326;-70
2022/11/25 04:42:38;;;;;;;;;3.00;3.00;;;;;10.79;77.88;100936.47;5000520;28;45410;-71
2022/11/25 04:45:14;;;;;;;;;4.00;4.00;;;;;10.15;77.97;100852.78;4998533;28;45999;-70
2022/11/25 04:47:39;;;;;;;;;3.33;3.00;;;;;10.76;77.93;100944.75;4999839;28;45388;-71
2022/11/25 04:50:08;;;;;;;;;5.00;2.33;;;;;10.31;78.01;100868.22;4999830;28;45422;-71
2022/11/25 04:52:34;;;;;;;;;6.00;4.00;;;;;10.55;78.03;100919.13;5000049;28;45315;-70
2022/11/25 04:54:59;;;;;;;;;6.00;4.00;;;;;10.38;78.63;100892.41;4999720;28;45805;-70
2022/11/25 04:57:24;;;;;;;;;6.33;5.33;;;;;10.76;78.41;100963.34;4999661;28;45314;-69
2022/11/25 04:59:50;;;;;;;;;5.00;5.00;;;;;10.24;78.17;100888.34;4981876;28;45249;-71
2022/11/25 05:02:21;;;;;;;;;4.33;3.33;;;;;10.25;78.07;100884.72;5000178;28;45172;-69
2022/11/25 05:04:48;;;;;;;;;3.33;3.00;;;;;10.67;78.20;100962.38;4999338;28;46469;-69
2022/11/25 05:07:16;;;;;;;;;3.33;3.33;;;;;9.91;78.08;100839.91;5000003;28;45252;-69
2022/11/25 05:09:41;;;;;;;;;6.67;4.00;;;;;10.31;78.66;100911.56;4999964;28;45460;-71
2022/11/25 05:12:11;;;;;;;;;6.33;5.00;;;;;10.64;78.44;100975.97;4978684;28;45405;-69
2022/11/25 05:14:36;;;;;;;;;4.33;4.00;;;;;9.65;78.48;100820.16;4979738;28;45479;-68
2022/11/25 05:17:03;;;;;;;;;6.00;3.33;;;;;10.49;78.58;100972.88;4979758;28;45456;-70
2022/11/25 05:19:28;;;;;;;;;4.67;2.33;;;;;10.44;78.99;100979.59;4979800;28;45332;-69
2022/11/25 05:21:53;;;;;;;;;6.33;4.33;;;;;10.51;79.21;101005.47;4979807;28;45330;-69
2022/11/25 05:24:19;;;;;;;;;6.33;5.00;;;;;10.50;79.38;101003.78;4994605;28;47650;-70
2022/11/25 05:26:44;;;;;;;;;4.00;4.00;;;;;10.47;79.30;101004.06;4979612;28;45224;-70
2022/11/25 05:29:10;;;;;;;;;4.67;4.67;;;;;10.44;78.94;101003.50;4979709;28;45365;-71
2022/11/25 05:31:35;;;;;;;;;7.00;4.00;;;;;9.95;79.20;100922.78;4979923;28;45408;-70
2022/11/25 05:34:01;;;;;;;;;9.00;4.67;;;;;9.52;79.40;100854.03;4977723;28;50409;-70
2022/11/25 05:36:27;;;;;;;;;6.67;3.00;;;;;10.45;79.13;101014.00;4979469;28;45492;-71
2022/11/25 05:38:54;;;;;;;;;4.67;4.33;;;;;10.47;79.34;101032.47;4979985;28;45202;-71
2022/11/25 05:41:20;;;;;;;;;3.00;3.00;;;;;9.30;78.92;100845.31;4978704;28;45271;-70
2022/11/25 05:43:46;;;;;;;;;5.33;4.33;;;;;9.67;78.82;100903.97;4979343;28;45645;-69
2022/11/25 05:46:11;;;;;;;;;3.67;2.67;;;;;9.79;79.01;100925.94;4978068;28;45559;-68
2022/11/25 05:48:37;;;;;;;;;6.00;5.00;;;;;10.42;78.80;101042.66;4994088;28;45403;-69
2022/11/25 05:51:03;;;;;;;;;7.33;6.67;;;;;10.28;78.95;101017.31;4979632;28;45455;-69
2022/11/25 05:53:29;;;;;;;;;6.00;6.00;;;;;9.88;79.18;100958.84;4978684;28;45761;-70
2022/11/25 05:55:56;;;;;;;;;6.33;5.67;;;;;10.37;79.21;101037.75;4978856;28;45543;-71
2022/11/25 05:58:23;;;;;;;;;5.00;4.00;;;;;10.17;79.00;101004.91;4979270;28;45457;-70
2022/11/25 06:00:49;;;;;;;;;6.33;5.00;;;;;10.34;78.89;101053.97;4979238;28;45546;-70
2022/11/25 06:03:14;;;;;;;;;4.67;4.67;;;;;10.37;79.37;101061.66;4977441;28;47229;-69
2022/11/25 06:05:40;;;;;;;;;7.67;5.00;;;;;10.28;78.41;101039.41;4977780;28;45483;-71
2022/11/25 06:08:06;;;;;;;;;10.67;7.33;;;;;10.39;78.94;101054.38;4994053;28;45270;-74
2022/11/25 06:10:32;;;;;;;;;7.67;7.67;;;;;9.37;78.46;100894.19;4993697;28;45429;-72
2022/11/25 06:12:57;;;;;;;;;6.00;5.00;;;;;9.84;79.04;100979.50;4992611;28;45949;-70
2022/11/25 06:15:25;;;;;;;;;6.00;4.67;;;;;9.11;78.98;100872.56;4998690;28;45464;-70
2022/11/25 06:17:50;;;;;;;;;8.67;6.33;;;;;10.32;79.26;101079.84;4997808;28;45544;-71
2022/11/25 06:20:16;;;;;;;;;7.00;5.00;;;;;10.31;78.93;101064.88;4998750;28;45248;-69
2022/11/25 06:22:41;;;;;;;;;6.00;3.67;;;;;9.96;78.79;101014.75;4998330;28;46164;-68
2022/11/25 06:25:07;;;;;;;;;5.00;4.67;;;;;10.25;78.74;101068.06;4998313;28;45437;-71
2022/11/25 06:27:32;;;;;;;;;6.67;5.67;;;;;9.95;78.60;101037.00;5013530;28;45362;-71
2022/11/25 06:29:58;;;;;;;;;4.00;4.00;;;;;10.16;79.19;101079.44;4998662;28;45345;-70
2022/11/25 06:32:24;;;;;;;;;6.67;5.00;;;;;10.24;78.41;101085.00;4997931;28;45402;-72
2022/11/25 06:34:49;;;;;;;;;10.67;5.67;;;;;10.22;78.91;101087.78;4998270;28;45470;-72
2022/11/25 06:37:15;;;;;;;;;13.67;7.00;;;;;9.96;78.89;101050.13;4998968;28;45567;-71
2022/11/25 06:39:40;;;;;;;;;8.00;6.00;;;;;9.62;79.22;101015.03;4998711;28;45423;-70
2022/11/25 06:42:05;;;;;;;;;6.00;6.00;;;;;9.53;79.13;101007.84;4998335;28;45498;-71
2022/11/25 06:44:34;;;;;;;;;6.67;5.33;;;;;10.02;78.93;101100.09;4998896;28;45408;-71
2022/11/25 06:46:59;;;;;;;;;5.00;2.00;;;;;9.94;79.28;101081.28;4998516;28;45213;-71
2022/11/25 06:49:25;;;;;;;;;6.33;5.33;;;;;9.92;78.81;101077.09;4998747;28;45311;-70
2022/11/25 06:51:50;;;;;;;;;7.00;5.67;;;;;9.67;78.86;101039.38;5005686;28;46384;-73
2022/11/25 06:54:16;;;;;;;;;4.33;4.33;;;;;9.96;78.85;101095.28;4988371;28;45591;-74
2022/11/25 06:56:42;;;;;;;;;21.33;19.00;;;;;9.94;79.36;101093.75;5005630;28;45278;-71
2022/11/25 06:59:07;;;;;;;;;6.33;4.33;;;;;10.02;79.53;101116.03;4998665;28;45485;-70
2022/11/25 07:01:33;;;;;;;;;11.33;9.67;;;;;9.97;79.36;101102.28;4996922;28;47047;-73
2022/11/25 07:04:02;;;;;;;;;5.33;5.33;;;;;10.02;79.04;101115.19;5001006;28;45355;-71
2022/11/25 07:06:27;;;;;;;;;7.33;6.00;;;;;10.00;79.01;101109.13;4998370;28;45294;-71
2022/11/25 07:08:53;;;;;;;;;7.33;7.33;;;;;9.45;79.51;101021.78;4985100;28;45312;-70
2022/11/25 07:11:23;;;;;;;;;6.00;6.00;;;;;9.98;78.90;101114.59;4997000;28;47003;-72
2022/11/25 07:13:54;;;;;;;;;8.67;7.00;;;;;9.86;79.49;101102.38;4997470;28;45437;-72
2022/11/25 07:16:20;;;;;;;;;9.00;6.00;;;;;9.31;79.43;101015.94;4984905;28;45577;-71
2022/11/25 07:18:45;;;;;;;;;10.00;7.67;;;;;9.87;79.19;101106.72;4998323;28;45600;-72
2022/11/25 07:21:15;;;;;;;;;10.00;7.33;;;;;9.90;79.34;101135.66;4997561;28;45692;-71
2022/11/25 07:23:43;;;;;;;;;11.00;9.00;;;;;9.60;79.26;101093.09;4998913;28;45448;-72
2022/11/25 07:26:11;;;;;;;;;12.67;8.00;;;;;9.81;79.40;101135.56;4979978;28;45398;-72
2022/11/25 07:28:37;;;;;;;;;10.00;7.33;;;;;9.90;79.70;101164.03;5014006;28;45432;-72
2022/11/25 07:31:04;;;;;;;;;14.00;13.00;;;;;9.86;79.72;101138.72;5016714;28;46667;-72
2022/11/25 07:33:30;;;;;;;;;7.00;6.00;;;;;9.25;79.02;101035.03;4999162;28;45583;-72
2022/11/25 07:35:55;;;;;;;;;15.33;9.00;;;;;9.98;79.07;101173.03;5005882;28;45392;-72
2022/11/25 07:38:20;;;;;;;;;9.00;7.67;;;;;9.59;79.22;101102.88;5016176;28;45550;-75
2022/11/25 07:40:46;;;;;;;;;12.67;7.67;;;;;10.04;78.92;101187.63;5017496;28;45349;-71
2022/11/25 07:43:11;;;;;;;;;13.00;9.00;;;;;9.56;78.61;101081.91;4995765;28;45408;-72
2022/11/25 07:45:37;;;;;;;;;12.00;7.67;;;;;9.82;78.75;101122.19;5017864;28;45684;-72
2022/11/25 07:48:02;;;;;;;;;6.67;5.00;;;;;10.17;78.25;101190.91;5016812;28;45427;-72
2022/11/25 07:50:28;;;;;;;;;9.33;8.33;;;;;8.85;78.18;100953.50;5015877;28;48671;-73
2022/11/25 07:52:53;;;;;;;;;6.00;6.00;;;;;10.02;78.06;101147.06;5019740;28;45594;-73
2022/11/25 07:55:18;;;;;;;;;13.33;10.00;;;;;10.29;78.36;101191.72;5012589;28;45589;-75
2022/11/25 07:57:44;;;;;;;;;7.67;6.67;;;;;10.24;78.01;101192.13;5007308;28;45425;-73
2022/11/25 08:00:10;;;;;;;;;8.67;7.33;;;;;9.84;77.67;101125.56;5015596;28;47605;-72
2022/11/25 08:02:35;;;;;;;;;11.00;7.67;;;;;10.35;77.41;101223.91;5017145;28;45340;-73
2022/11/25 08:05:00;;;;;;;;;11.67;9.00;;;;;10.35;77.57;101218.59;5016289;28;45270;-72
2022/11/25 08:07:26;;;;;;;;;10.00;8.67;;;;;10.30;77.69;101204.03;5017450;28;45372;-73
2022/11/25 08:09:55;;;;;;;;;8.33;8.33;;;;;10.10;77.25;101186.25;5017016;28;45335;-75
2022/11/25 08:12:20;;;;;;;;;8.00;6.67;;;;;10.50;77.38;101245.69;5015391;28;45755;-72
2022/11/25 08:14:46;;;;;;;;;19.33;16.67;;;;;10.22;76.79;101202.03;5001141;28;45325;-72
2022/11/25 08:17:11;;;;;;;;;8.00;7.33;;;;;10.56;76.79;101273.56;4997473;28;45754;-74
2022/11/25 08:19:36;;;;;;;;;10.67;8.67;;;;;9.82;76.65;101140.78;4997912;28;46315;-73
2022/11/25 08:22:02;;;;;;;;;11.33;8.33;;;;;10.47;76.51;101255.75;5008637;28;45515;-74
2022/11/25 08:24:27;;;;;;;;;7.67;7.00;;;;;10.41;76.51;101227.00;4997091;28;45618;-72
2022/11/25 08:26:53;;;;;;;;;10.67;10.00;;;;;10.04;76.70;101172.53;4996993;28;45367;-71
2022/11/25 08:29:19;;;;;;;;;11.67;8.00;;;;;10.61;76.78;101266.03;4982734;28;47981;-71
2022/11/25 08:31:45;;;;;;;;;13.67;10.00;;;;;10.57;76.86;101252.16;5003487;28;45439;-72
2022/11/25 08:34:18;;;;;;;;;12.00;9.00;;;;;10.64;76.69;101287.06;4997830;28;45413;-71
2022/11/25 08:36:43;;;;;;;;;10.00;8.67;;;;;10.50;76.61;101243.03;5008157;28;45258;-73
2022/11/25 08:39:08;;;;;;;;;10.00;8.00;;;;;10.67;76.38;101257.56;5005910;28;45531;-75
2022/11/25 08:41:36;;;;;;;;;8.00;7.33;;;;;10.75;76.04;101260.38;5023196;28;45395;-73
2022/11/25 08:44:04;;;;;;;;;11.00;9.67;;;;;10.90;75.28;101300.78;5005239;28;45731;-71
2022/11/25 08:46:35;;;;;;;;;15.33;11.00;;;;;10.95;75.90;101282.59;5013508;28;45386;-74
2022/11/25 08:49:02;;;;;;;;;11.67;10.67;;;;;11.04;75.80;101294.28;5009889;28;46420;-73
2022/11/25 08:51:30;;;;;;;;;11.33;9.67;;;;;10.90;75.58;101266.19;5013634;28;45517;-72
2022/11/25 08:53:56;;;;;;;;;32.00;30.00;;;;;11.15;75.15;101295.00;5018065;28;45424;-72
2022/11/25 08:56:23;;;;;;;;;18.00;12.67;;;;;11.22;74.50;101304.16;5008037;28;45468;-74
2022/11/25 08:58:49;;;;;;;;;10.33;9.00;;;;;11.33;74.21;101319.16;4986097;28;47429;-72
2022/11/25 09:01:16;;;;;;;;;10.33;9.00;;;;;10.29;74.16;101135.91;5006028;28;45702;-79
2022/11/25 09:03:45;;;;;;;;;9.33;9.33;;;;;11.44;73.77;101318.22;5009274;28;45589;-75
2022/11/25 09:06:12;;;;;;;;;16.33;10.67;;;;;11.50;73.94;101317.69;4999675;28;45527;-72
2022/11/25 09:08:39;;;;;;;;;17.67;13.00;;;;;11.54;73.80;101319.09;4998960;28;46672;-74
2022/11/25 09:11:05;;;;;;;;;12.33;12.33;;;;;11.32;73.53;101288.19;4981996;28;45382;-72
2022/11/25 09:13:31;;;;;;;;;11.00;9.00;;;;;11.73;73.54;101343.09;4994518;28;45530;-74
2022/11/25 09:15:56;;;;;;;;;15.33;13.67;;;;;11.69;72.88;101319.56;4987497;28;45638;-75
2022/11/25 09:18:25;;;;;;;;;12.00;11.00;;;;;11.94;72.75;101342.19;4988412;28;45638;-73
2022/11/25 09:20:51;;;;;;;;;12.00;10.00;;;;;11.90;72.43;101335.47;4980148;28;45500;-72
2022/11/25 09:23:18;;;;;;;;;13.33;9.67;;;;;11.86;71.61;101318.91;5003960;28;45559;-72
2022/11/25 09:25:53;;;;;;;;;10.00;10.00;;;;;10.93;71.79;101160.34;4991433;28;45420;-73
2022/11/25 09:28:19;;;;;;;;;11.33;9.00;;;;;11.90;71.06;101308.81;5002764;28;47750;-73
2022/11/25 09:30:45;;;;;;;;;8.67;7.00;;;;;12.25;70.75;101366.94;5010677;28;46814;-72
2022/11/25 09:33:10;;;;;;;;;9.33;9.33;;;;;12.33;70.45;101370.56;4990664;28;45806;-74
2022/11/25 09:35:36;;;;;;;;;10.33;7.00;;;;;12.38;70.32;101368.31;4978890;28;45488;-72
2022/11/25 09:38:01;;;;;;;;;13.33;10.33;;;;;12.43;70.37;101371.44;4979256;28;48152;-71
2022/11/25 09:40:32;;;;;;;;;12.67;9.33;;;;;12.56;69.91;101378.28;4993463;28;45383;-72
2022/11/25 09:46:41;;;;;;;;;8.00;7.67;;;;;12.59;69.50;101386.00;4979789;28;45491;-73
2022/11/25 09:49:31;;;;;;;;;13.67;9.33;;;;;12.62;68.92;101385.75;4982481;28;46495;-73
2022/11/25 09:52:08;;;;;;;;;9.67;9.00;;;;;12.60;69.18;101393.00;4992905;28;45328;-72
2022/11/25 09:54:37;;;;;;;;;17.33;16.00;;;;;12.48;69.01;101369.16;4982540;28;45464;-73
2022/11/25 09:57:16;;;;;;;;;9.00;7.67;;;;;12.29;69.11;101341.66;4995738;28;45499;-72
2022/11/25 09:59:51;;;;;;;;;6.00;6.00;;;;;12.01;68.11;101308.66;5004536;28;45590;-73
2022/11/25 10:02:40;;;;;;;;;10.00;7.00;;;;;12.61;68.33;101410.69;4986359;28;45967;-74
2022/11/25 10:05:18;;;;;;;;;10.33;5.00;;;;;12.42;67.76;101401.75;4999787;28;45517;-75
2022/11/25 10:07:51;;;;;;;;;8.33;4.33;;;;;12.18;67.57;101366.63;5011293;28;45546;-74
2022/11/25 10:10:31;;;;;;;;;9.00;6.67;;;;;12.55;67.39;101432.63;4981634;28;46228;-72
2022/11/25 10:12:58;;;;;;;;;5.67;5.00;;;;;11.46;67.65;101261.19;4993297;28;45530;-71
2022/11/25 10:15:33;;;;;;;;;7.00;6.00;;;;;11.43;68.08;101269.47;4994105;28;45325;-71
2022/11/25 10:18:27;;;;;;;;;9.33;6.00;;;;;12.41;68.15;101450.72;4979519;28;45306;-72
2022/11/25 10:20:53;;;;;;;;;8.00;4.00;;;;;12.41;68.61;101464.06;4978917;28;47259;-71
2022/11/25 10:23:32;;;;;;;;;7.33;7.00;;;;;11.69;68.32;101312.41;4993913;28;45409;-73
2022/11/25 10:26:02;;;;;;;;;8.33;4.67;;;;;11.59;67.81;101295.53;4979335;28;45436;-72
2022/11/25 10:28:33;;;;;;;;;6.00;4.67;;;;;12.51;68.17;101450.72;4979672;28;45491;-74
2022/11/25 10:31:10;;;;;;;;;8.67;8.67;;;;;12.57;67.47;101465.31;4994513;28;47563;-73
2022/11/25 10:33:52;;;;;;;;;12.33;6.67;;;;;12.59;67.86;101456.19;4979347;28;45303;-73
2022/11/25 10:36:23;;;;;;;;;8.33;8.00;;;;;12.65;67.51;101460.16;4979176;28;45277;-74
2022/11/25 10:39:10;;;;;;;;;8.00;8.00;;;;;12.61;67.04;101458.72;4994596;28;45239;-72
2022/11/25 10:41:58;;;;;;;;;6.67;6.00;;;;;12.49;67.50;101437.53;4990264;28;48628;-72
2022/11/25 10:44:31;;;;;;;;;7.67;7.00;;;;;12.68;67.89;101465.19;5013324;28;45553;-72
2022/11/25 10:47:34;;;;;;;;;14.67;13.00;;;;;12.70;67.53;101466.75;4999517;28;45450;-74
2022/11/25 10:50:14;;;;;;;;;11.00;9.00;;;;;12.55;67.00;101435.28;4998730;28;45514;-71
2022/11/25 10:53:29;;;;;;;;;5.33;5.00;;;;;12.75;67.13;101471.66;4997479;28;47070;-73
2022/11/25 10:55:57;;;;;;;;;11.00;8.33;;;;;12.75;67.15;101472.50;5011016;28;45550;-74
2022/11/25 10:58:41;;;;;;;;;4.33;4.33;;;;;12.05;67.36;101350.06;5013733;28;45496;-72
2022/11/25 11:01:21;;;;;;;;;11.67;7.67;;;;;12.79;67.21;101475.72;4984793;28;45522;-72
2022/11/25 11:03:53;;;;;;;;;8.67;7.67;;;;;12.65;67.65;101468.16;4978122;28;46531;-73
2022/11/25 11:06:35;;;;;;;;;6.00;5.00;;;;;12.75;66.85;101498.31;4977379;28;45789;-72
2022/11/25 11:09:01;;;;;;;;;13.00;8.00;;;;;12.64;67.56;101474.47;4998441;28;45483;-77
2022/11/25 11:11:30;;;;;;;;;7.33;7.33;;;;;12.15;67.17;101386.41;4987846;28;45394;-74
2022/11/25 11:14:12;;;;;;;;;15.33;14.67;;;;;12.64;67.47;101463.81;5013491;28;48860;-73
2022/11/25 11:16:41;;;;;;;;;13.67;9.00;;;;;12.75;67.57;101482.31;5001278;28;46455;-77
2022/11/25 11:19:20;;;;;;;;;5.00;5.00;;;;;12.48;67.28;101440.34;4992190;28;45471;-75
2022/11/25 11:21:46;;;;;;;;;5.33;5.00;;;;;12.72;67.07;101487.94;4983348;28;46178;-73
2022/11/25 11:24:36;;;;;;;;;7.00;5.00;;;;;12.58;67.33;101475.00;5009899;28;45726;-74
2022/11/25 11:27:23;;;;;;;;;8.00;8.00;;;;;12.24;67.48;101424.75;4995787;28;45444;-75
2022/11/25 11:30:08;;;;;;;;;7.67;4.67;;;;;12.69;67.85;101493.56;4996542;28;45312;-73
2022/11/25 11:32:34;;;;;;;;;12.67;9.67;;;;;11.27;67.57;101248.69;5012669;28;45225;-73
2022/11/25 11:35:20;;;;;;;;;8.67;7.67;;;;;12.87;67.73;101507.06;5017275;28;45323;-74